Time;durP1;ratioP1;P1;durP2;ratioP2;P2;SDS_P1;SDS_P2;PMS_P1;PMS_P2;Temp;Humidity;BMP_temperature;BMP_pressure;BME280_temperature;BME280_humidity;BME280_pressure;Samples;Min_cycle;Max_cycle;Signal;HPM_P1;HPM_P2
2023/08/15 00:01:01;;;;;;;4.65;3.47;;;;;;;29.38;31.02;99698.47;5070102;28;20549;-44
2023/08/15 00:03:27;;;;;;;3.80;3.20;;;;;;;29.33;31.67;99690.41;5070143;28;20445;-42
2023/08/15 00:05:52;;;;;;;4.63;3.47;;;;;;;29.38;31.69;99701.19;5070091;28;20197;-44
2023/08/15 00:08:17;;;;;;;4.03;3.40;;;;;;;29.41;31.72;99692.31;5070144;28;20477;-43
2023/08/15 00:10:43;;;;;;;4.28;3.33;;;;;;;29.40;31.65;99687.97;5069923;28;20031;-41
2023/08/15 00:13:08;;;;;;;4.93;3.33;;;;;;;29.23;31.75;99695.13;5069921;28;20078;-42
2023/08/15 00:15:35;;;;;;;4.80;3.13;;;;;;;29.33;31.65;99696.69;5069967;28;20035;-41
2023/08/15 00:18:00;;;;;;;4.65;3.60;;;;;;;29.17;31.70;99698.41;5069734;28;20093;-44
2023/08/15 00:20:26;;;;;;;6.05;3.75;;;;;;;29.12;31.54;99696.59;5069902;28;20028;-43
2023/08/15 00:22:51;;;;;;;5.03;3.67;;;;;;;29.13;31.72;99694.69;5069732;28;20094;-43
2023/08/15 00:25:17;;;;;;;5.25;3.63;;;;;;;29.24;31.40;99702.25;5069674;28;20020;-45
2023/08/15 00:27:42;;;;;;;7.68;4.03;;;;;;;29.07;31.27;99699.50;5069626;28;20067;-43
2023/08/15 00:30:08;;;;;;;9.32;3.85;;;;;;;28.95;31.41;99702.16;5069815;28;20115;-45
2023/08/15 00:32:35;;;;;;;5.78;3.53;;;;;;;28.55;31.70;99705.16;5072518;28;20032;-45
2023/08/15 00:35:03;;;;;;;5.75;3.80;;;;;;;28.36;32.08;99708.22;5073821;28;20028;-45
2023/08/15 00:37:29;;;;;;;4.38;3.75;;;;;;;28.27;32.08;99706.28;5073548;28;20048;-45
2023/08/15 00:39:54;;;;;;;5.50;3.60;;;;;;;28.03;32.32;99701.31;5073635;28;20071;-44
2023/08/15 00:42:20;;;;;;;5.13;3.80;;;;;;;28.26;32.29;99712.88;5073705;28;20040;-43
2023/08/15 00:44:45;;;;;;;4.20;3.42;;;;;;;28.39;31.95;99705.63;5073712;28;20141;-42
2023/08/15 00:47:11;;;;;;;4.72;3.55;;;;;;;28.38;31.69;99706.75;5073337;28;20340;-44
2023/08/15 00:49:37;;;;;;;5.30;3.80;;;;;;;28.36;31.83;99703.53;5074006;28;20024;-47
2023/08/15 00:52:03;;;;;;;5.20;3.78;;;;;;;28.54;31.64;99701.63;5073379;28;20032;-44
2023/08/15 00:54:29;;;;;;;4.93;3.63;;;;;;;28.56;31.48;99702.09;5073319;28;20032;-42
2023/08/15 00:56:55;;;;;;;6.07;3.47;;;;;;;28.60;31.47;99694.03;5073374;28;20035;-43
2023/08/15 00:59:21;;;;;;;4.70;3.53;;;;;;;28.44;31.76;99694.53;5073218;28;20160;-44
2023/08/15 01:01:46;;;;;;;7.03;3.80;;;;;;;28.24;32.03;99693.25;5072830;28;20381;-43
2023/08/15 01:04:13;;;;;;;6.13;3.80;;;;;;;28.36;31.98;99689.84;5073449;28;20020;-40
2023/08/15 01:06:38;;;;;;;4.68;3.20;;;;;;;28.39;31.68;99680.22;5072896;28;20031;-42
2023/08/15 01:09:04;;;;;;;5.88;3.80;;;;;;;28.28;32.16;99682.47;5073044;28;20024;-44
2023/08/15 01:11:37;;;;;;;5.93;3.53;;;;;;;28.30;31.99;99685.69;5072677;28;20028;-43
2023/08/15 01:14:07;;;;;;;5.43;3.60;;;;;;;28.21;32.37;99680.22;5072854;28;20044;-46
2023/08/15 01:16:43;;;;;;;6.05;3.80;;;;;;;28.32;32.33;99686.16;5072748;28;20126;-43
2023/08/15 01:19:30;;;;;;;6.32;3.72;;;;;;;28.44;32.22;99683.59;5072941;28;20043;-42
2023/08/15 01:21:58;;;;;;;4.88;3.53;;;;;;;28.45;32.55;99682.44;5073008;28;20119;-45
2023/08/15 01:24:24;;;;;;;5.40;3.30;;;;;;;28.57;32.20;99686.47;5072625;28;20085;-43
2023/08/15 01:26:50;;;;;;;6.45;3.70;;;;;;;28.59;32.24;99686.94;5072611;28;20120;-45
2023/08/15 01:29:15;;;;;;;5.18;3.55;;;;;;;28.63;31.95;99679.69;5072469;28;20444;-44
2023/08/15 01:31:50;;;;;;;7.03;3.67;;;;;;;28.68;32.22;99682.25;5072542;28;20020;-43
2023/08/15 01:34:20;;;;;;;5.82;3.55;;;;;;;28.75;32.33;99676.28;5072431;28;20036;-45
2023/08/15 01:36:53;;;;;;;5.88;3.75;;;;;;;28.69;32.54;99675.66;5072412;28;20441;-44
2023/08/15 01:39:27;;;;;;;6.18;3.65;;;;;;;28.74;32.44;99674.69;5072335;28;20109;-44
2023/08/15 01:41:54;;;;;;;7.15;3.60;;;;;;;28.73;32.65;99664.84;5072262;28;20025;-43
2023/08/15 01:44:20;;;;;;;5.30;3.50;;;;;;;28.76;32.07;99662.25;5071177;28;20024;-42
2023/08/15 01:46:47;;;;;;;5.13;3.60;;;;;;;28.74;32.08;99652.78;5072606;28;20461;-41
2023/08/15 01:49:15;;;;;;;4.53;3.67;;;;;;;28.78;32.14;99670.94;5072202;28;20048;-43
2023/08/15 01:51:40;;;;;;;4.33;3.50;;;;;;;28.82;32.02;99660.16;5072099;28;20052;-44
2023/08/15 01:54:06;;;;;;;5.90;3.70;;;;;;;28.84;31.93;99660.63;5072074;28;20314;-42
2023/08/15 01:56:31;;;;;;;4.60;3.55;;;;;;;28.83;31.67;99661.78;5071946;28;20484;-43
2023/08/15 01:58:57;;;;;;;5.65;3.53;;;;;;;28.88;31.78;99655.31;5071944;28;20030;-43
2023/08/15 02:01:23;;;;;;;5.13;3.40;;;;;;;28.75;31.81;99659.84;5071971;28;20463;-42
2023/08/15 02:03:48;;;;;;;7.03;4.00;;;;;;;28.76;32.08;99645.03;5071691;28;20447;-41
2023/08/15 02:06:14;;;;;;;7.25;3.70;;;;;;;28.84;32.13;99661.44;5071692;28;20035;-46
2023/08/15 02:08:40;;;;;;;5.43;3.80;;;;;;;28.79;32.08;99661.63;5071712;28;20016;-43
2023/08/15 02:11:05;;;;;;;5.43;3.70;;;;;;;28.84;32.22;99655.97;5071895;28;20021;-45
2023/08/15 02:13:33;;;;;;;5.30;3.70;;;;;;;28.81;31.92;99658.56;5071607;28;20020;-43
2023/08/15 02:15:58;;;;;;;6.45;3.90;;;;;;;28.73;31.93;99660.19;5071633;28;20020;-42
2023/08/15 02:18:29;;;;;;;5.85;3.72;;;;;;;28.68;31.96;99654.88;5071751;28;20024;-42
2023/08/15 02:20:54;;;;;;;5.55;3.95;;;;;;;28.68;32.08;99654.09;5071440;28;20027;-44
2023/08/15 02:23:20;;;;;;;8.60;3.70;;;;;;;28.67;32.23;99650.53;5071581;28;20024;-44
2023/08/15 02:25:46;;;;;;;6.30;3.72;;;;;;;28.49;32.56;99652.50;5071586;28;20052;-46
2023/08/15 02:28:11;;;;;;;7.05;4.15;;;;;;;28.37;32.84;99653.16;5071445;28;20341;-42
2023/08/15 02:30:37;;;;;;;5.03;3.88;;;;;;;28.33;32.92;99657.69;5071167;28;20047;-43
2023/08/15 02:33:06;;;;;;;5.45;3.70;;;;;;;28.42;32.95;99652.97;5071485;28;20116;-42
2023/08/15 02:35:32;;;;;;;7.07;3.67;;;;;;;28.27;33.21;99656.22;5071108;28;20031;-46
2023/08/15 02:37:57;;;;;;;4.90;4.03;;;;;;;28.22;33.10;99650.94;5071364;28;20048;-44
2023/08/15 02:40:29;;;;;;;6.57;3.97;;;;;;;28.37;33.02;99657.81;5071319;28;20035;-47
2023/08/15 02:42:54;;;;;;;5.78;3.72;;;;;;;28.42;33.02;99661.19;5071297;28;20123;-45
2023/08/15 02:45:20;;;;;;;5.28;4.07;;;;;;;28.48;32.90;99656.34;5070993;28;20107;-43
2023/08/15 02:47:46;;;;;;;5.93;4.00;;;;;;;28.54;33.07;99652.38;5070659;28;20028;-42
2023/08/15 02:50:12;;;;;;;7.00;3.95;;;;;;;28.54;32.69;99654.28;5071187;28;20106;-44
2023/08/15 02:52:37;;;;;;;6.22;3.92;;;;;;;28.37;33.07;99636.75;5071133;28;20056;-43
2023/08/15 02:55:04;;;;;;;6.97;4.20;;;;;;;28.50;32.98;99664.25;5070368;28;20491;-44
2023/08/15 02:57:29;;;;;;;5.72;3.85;;;;;;;28.43;33.06;99659.28;5070727;28;20032;-46
2023/08/15 02:59:55;;;;;;;6.03;3.90;;;;;;;28.58;33.00;99663.47;5070634;28;20044;-42
2023/08/15 03:02:20;;;;;;;6.20;4.07;;;;;;;28.59;32.81;99660.38;5070523;28;20425;-43
2023/08/15 03:04:46;;;;;;;6.13;3.88;;;;;;;28.54;33.00;99657.84;5070458;28;20024;-42
2023/08/15 03:07:11;;;;;;;5.03;4.25;;;;;;;28.48;33.24;99664.56;5070840;28;20032;-42
2023/08/15 03:09:37;;;;;;;6.35;4.32;;;;;;;28.51;33.29;99665.84;5070339;28;20095;-42
2023/08/15 03:12:02;;;;;;;5.03;4.07;;;;;;;28.52;33.21;99665.56;5070651;28;20032;-43
2023/08/15 03:14:28;;;;;;;5.85;3.90;;;;;;;28.57;32.95;99657.16;5070291;28;20031;-45
2023/08/15 03:16:54;;;;;;;7.10;3.80;;;;;;;28.56;33.30;99658.31;5070387;28;20040;-42
2023/08/15 03:19:20;;;;;;;5.72;4.40;;;;;;;28.57;33.28;99659.09;5070935;28;20028;-40
2023/08/15 03:21:45;;;;;;;4.07;3.65;;;;;;;28.54;33.21;99654.28;5070523;28;20481;-46
2023/08/15 03:24:11;;;;;;;49.15;34.38;;;;;;;28.45;33.18;99665.22;5070296;28;20020;-43
2023/08/15 03:26:36;;;;;;;10.05;5.65;;;;;;;28.36;33.50;99676.16;5070186;28;20028;-44
2023/08/15 03:29:02;;;;;;;7.30;5.20;;;;;;;28.40;33.30;99666.19;5070397;28;20031;-44
2023/08/15 03:31:28;;;;;;;7.40;4.53;;;;;;;28.46;33.52;99670.38;5070377;28;20031;-44
2023/08/15 03:33:53;;;;;;;7.10;4.28;;;;;;;28.45;33.55;99668.75;5070158;28;20037;-42
2023/08/15 03:36:18;;;;;;;5.80;4.20;;;;;;;28.46;33.40;99664.09;5070465;28;20024;-42
2023/08/15 03:38:44;;;;;;;4.88;3.95;;;;;;;28.49;33.52;99666.19;5070134;28;20044;-44
2023/08/15 03:41:09;;;;;;;5.10;4.15;;;;;;;28.50;33.47;99667.78;5070000;28;20042;-45
2023/08/15 03:43:35;;;;;;;7.05;4.13;;;;;;;28.49;33.42;99668.13;5070147;28;20033;-42
2023/08/15 03:46:02;;;;;;;7.03;4.30;;;;;;;28.49;33.62;99666.19;5069940;28;20127;-42
2023/08/15 03:48:31;;;;;;;6.80;4.50;;;;;;;28.45;33.80;99676.97;5069636;28;20036;-42
2023/08/15 03:50:58;;;;;;;5.97;4.30;;;;;;;28.49;33.45;99673.59;5069973;28;20025;-42
2023/08/15 03:53:23;;;;;;;5.20;4.15;;;;;;;28.44;33.71;99667.16;5070097;28;20029;-43
2023/08/15 03:55:49;;;;;;;8.63;5.32;;;;;;;28.45;33.67;99679.69;5069847;28;20070;-41
2023/08/15 03:58:17;;;;;;;6.20;4.70;;;;;;;28.21;33.88;99668.47;5069782;28;20429;-42
2023/08/15 04:00:43;;;;;;;5.57;4.50;;;;;;;28.23;33.97;99677.94;5069748;28;20029;-42
2023/08/15 04:03:08;;;;;;;6.07;4.50;;;;;;;28.16;34.08;99674.09;5070083;28;20051;-41
2023/08/15 04:05:34;;;;;;;6.85;4.63;;;;;;;27.83;34.75;99680.03;5070180;28;20412;-41
2023/08/15 04:07:59;;;;;;;7.10;4.45;;;;;;;27.85;34.85;99683.22;5073859;28;20100;-41
2023/08/15 04:10:25;;;;;;;6.90;4.60;;;;;;;27.85;34.81;99684.06;5073966;28;20054;-42
2023/08/15 04:12:50;;;;;;;8.00;4.55;;;;;;;27.87;34.83;99676.34;5074330;28;20120;-41
2023/08/15 04:15:15;;;;;;;6.13;4.50;;;;;;;27.90;34.82;99683.13;5073757;28;20473;-41
2023/08/15 04:17:41;;;;;;;7.60;4.28;;;;;;;27.96;35.17;99684.56;5073997;28;20039;-42
2023/08/15 04:20:07;;;;;;;5.70;4.25;;;;;;;28.04;34.80;99689.22;5074185;28;20029;-42
2023/08/15 04:22:34;;;;;;;16.48;12.02;;;;;;;28.11;34.72;99679.75;5074115;28;20078;-43
2023/08/15 04:25:00;;;;;;;15.98;10.50;;;;;;;27.97;35.25;99686.19;5073693;28;20021;-42
2023/08/15 04:27:25;;;;;;;12.88;9.82;;;;;;;28.10;35.22;99683.59;5073876;28;20028;-43
2023/08/15 04:29:51;;;;;;;9.45;7.03;;;;;;;28.15;34.93;99697.91;5073668;28;20052;-41
2023/08/15 04:32:16;;;;;;;8.25;5.20;;;;;;;28.14;34.88;99706.44;5073810;28;20036;-42
2023/08/15 04:34:41;;;;;;;7.43;4.90;;;;;;;28.13;34.81;99700.16;5073689;28;20025;-42
2023/08/15 04:37:07;;;;;;;6.80;4.60;;;;;;;28.16;34.99;99698.72;5074071;28;20028;-40
2023/08/15 04:39:32;;;;;;;7.55;4.57;;;;;;;28.14;35.02;99699.06;5073814;28;20057;-41
2023/08/15 04:41:58;;;;;;;7.72;4.82;;;;;;;28.07;35.21;99705.00;5073626;28;20032;-41
2023/08/15 04:44:23;;;;;;;7.20;4.20;;;;;;;27.98;35.25;99695.19;5073699;28;20119;-42
2023/08/15 04:46:49;;;;;;;5.90;4.70;;;;;;;27.71;35.63;99697.06;5073854;28;20164;-42
2023/08/15 04:49:14;;;;;;;7.60;4.88;;;;;;;27.72;35.58;99708.78;5073882;28;20035;-42
2023/08/15 04:51:40;;;;;;;21.58;15.35;;;;;;;27.70;35.56;99703.63;5073087;28;20104;-42
2023/08/15 04:54:05;;;;;;;10.02;6.00;;;;;;;27.88;35.12;99712.69;5073495;28;20036;-41
2023/08/15 04:56:31;;;;;;;9.68;4.82;;;;;;;27.90;35.11;99707.72;5073345;28;20573;-42
2023/08/15 04:58:56;;;;;;;10.75;4.82;;;;;;;28.01;35.35;99714.50;5073263;28;20024;-42
2023/08/15 05:01:22;;;;;;;8.38;5.30;;;;;;;27.98;35.39;99703.38;5072993;28;20025;-42
2023/08/15 05:03:47;;;;;;;8.40;4.80;;;;;;;27.90;36.13;99707.72;5073089;28;20095;-41
2023/08/15 05:06:13;;;;;;;11.70;7.15;;;;;;;28.02;35.54;99709.81;5073077;28;20048;-41
2023/08/15 05:08:38;;;;;;;23.35;15.95;;;;;;;28.03;35.45;99705.97;5073311;28;20424;-44
2023/08/15 05:11:03;;;;;;;15.63;9.98;;;;;;;28.02;35.41;99710.63;5073225;28;20027;-41
2023/08/15 05:13:29;;;;;;;15.13;8.82;;;;;;;27.85;35.62;99705.94;5072965;28;20408;-42
2023/08/15 05:15:55;;;;;;;8.20;6.10;;;;;;;27.88;35.26;99713.50;5072661;28;20384;-43
2023/08/15 05:18:20;;;;;;;11.52;5.15;;;;;;;27.79;35.38;99711.84;5071550;28;20103;-43
2023/08/15 05:20:47;;;;;;;8.40;5.15;;;;;;;27.90;35.27;99706.94;5073033;28;20024;-44
2023/08/15 05:23:14;;;;;;;8.05;5.03;;;;;;;27.59;35.67;99716.81;5072924;28;20024;-41
2023/08/15 05:25:41;;;;;;;11.18;4.97;;;;;;;27.63;35.67;99717.78;5072916;28;20020;-43
2023/08/15 05:28:07;;;;;;;12.68;5.45;;;;;;;27.48;36.16;99716.28;5072986;28;20028;-43
2023/08/15 05:30:33;;;;;;;10.43;5.00;;;;;;;27.40;36.15;99721.75;5072750;28;20020;-41
2023/08/15 05:32:59;;;;;;;11.88;5.03;;;;;;;27.52;36.06;99723.88;5072841;28;20070;-42
2023/08/15 05:35:24;;;;;;;7.45;4.93;;;;;;;27.54;35.93;99718.88;5072488;28;20028;-42
2023/08/15 05:37:50;;;;;;;14.05;7.53;;;;;;;27.80;35.72;99719.75;5072737;28;20041;-42
2023/08/15 05:40:15;;;;;;;15.23;7.93;;;;;;;27.78;35.96;99721.16;5072814;28;20571;-42
2023/08/15 05:42:41;;;;;;;8.95;5.57;;;;;;;27.87;35.91;99703.69;5072735;28;20016;-42
2023/08/15 05:45:07;;;;;;;7.35;5.47;;;;;;;28.02;35.88;99718.03;5072248;28;20016;-40
2023/08/15 05:47:33;;;;;;;12.82;5.32;;;;;;;27.93;35.74;99712.56;5072746;28;20168;-41
2023/08/15 05:49:58;;;;;;;8.15;5.47;;;;;;;27.87;35.86;99719.25;5072451;28;20107;-42
2023/08/15 05:52:25;;;;;;;8.65;5.13;;;;;;;27.83;36.08;99718.28;5072203;28;20051;-41
2023/08/15 05:54:50;;;;;;;6.32;4.45;;;;;;;27.61;36.05;99724.69;5072171;28;20039;-41
2023/08/15 05:57:16;;;;;;;8.27;5.78;;;;;;;27.70;36.04;99720.03;5072109;28;20023;-42
2023/08/15 05:59:41;;;;;;;7.05;4.53;;;;;;;27.84;35.91;99726.19;5071964;28;20029;-41
2023/08/15 06:02:07;;;;;;;9.23;4.72;;;;;;;27.69;35.93;99713.78;5072546;28;20021;-41
2023/08/15 06:04:32;;;;;;;8.65;4.43;;;;;;;27.38;36.87;99723.97;5072225;28;20030;-41
2023/08/15 06:06:58;;;;;;;9.15;4.60;;;;;;;27.45;36.77;99714.19;5071957;28;20050;-43
2023/08/15 06:09:23;;;;;;;5.60;4.25;;;;;;;27.47;36.68;99720.16;5072140;28;20420;-41
2023/08/15 06:11:50;;;;;;;6.78;4.65;;;;;;;27.91;35.95;99724.94;5071973;28;20145;-42
2023/08/15 06:14:22;;;;;;;6.93;4.47;;;;;;;27.97;35.95;99713.53;5071745;28;20020;-41
2023/08/15 06:16:48;;;;;;;10.98;4.30;;;;;;;27.83;36.07;99712.81;5072049;28;20036;-40
2023/08/15 06:19:14;;;;;;;6.25;4.35;;;;;;;27.96;36.27;99714.63;5071853;28;20190;-43
2023/08/15 06:21:43;;;;;;;9.48;4.20;;;;;;;27.95;35.92;99715.78;5071760;28;20039;-41
2023/08/15 06:24:12;;;;;;;7.35;4.60;;;;;;;28.17;35.95;99714.81;5073991;28;20128;-43
2023/08/15 06:26:38;;;;;;;8.18;4.53;;;;;;;27.92;36.23;99721.88;5082157;28;20055;-43
2023/08/15 06:29:04;;;;;;;7.10;5.47;;;;;;;28.17;35.92;99716.75;5096274;28;20039;-44
2023/08/15 06:31:31;;;;;;;7.93;5.10;;;;;;;28.34;35.97;99713.19;5112983;28;20455;-42
2023/08/15 06:33:56;;;;;;;6.82;4.90;;;;;;;28.12;36.37;99712.25;5112790;28;20125;-45
2023/08/15 06:36:22;;;;;;;11.15;4.85;;;;;;;27.91;36.61;99705.78;5112423;28;20054;-43
2023/08/15 06:38:49;;;;;;;8.90;5.40;;;;;;;27.93;36.21;99700.81;5111936;28;20067;-43
2023/08/15 06:41:15;;;;;;;6.07;4.40;;;;;;;28.14;35.93;99703.69;5112292;28;20027;-42
2023/08/15 06:43:40;;;;;;;9.98;4.50;;;;;;;27.97;36.27;99708.06;5112028;28;20038;-41
2023/08/15 06:46:05;;;;;;;7.72;4.60;;;;;;;28.26;36.16;99699.19;5111403;28;20061;-41
2023/08/15 06:48:31;;;;;;;7.70;4.45;;;;;;;27.97;36.50;99699.84;5110883;28;20055;-41
2023/08/15 06:50:56;;;;;;;9.07;4.97;;;;;;;28.02;36.51;99696.94;5110654;28;20024;-44
2023/08/15 06:53:22;;;;;;;6.40;4.00;;;;;;;28.04;36.96;99702.09;5111151;28;20015;-42
2023/08/15 06:55:50;;;;;;;7.13;4.35;;;;;;;28.15;36.19;99700.66;5111297;28;20020;-42
2023/08/15 06:58:16;;;;;;;7.05;4.63;;;;;;;28.20;36.06;99699.69;5111670;28;20090;-43
2023/08/15 07:00:43;;;;;;;7.95;4.60;;;;;;;28.35;36.21;99701.13;5111580;28;20107;-43
2023/08/15 07:03:08;;;;;;;8.77;5.07;;;;;;;28.58;35.76;99705.31;5111927;28;20391;-41
2023/08/15 07:05:34;;;;;;;7.65;4.63;;;;;;;28.67;35.81;99697.06;5111898;28;20035;-41
2023/08/15 07:08:00;;;;;;;6.40;4.43;;;;;;;28.60;35.72;99705.00;5111898;28;20102;-42
2023/08/15 07:10:25;;;;;;;6.13;4.47;;;;;;;28.83;35.65;99711.06;5111845;28;20026;-42
2023/08/15 07:12:51;;;;;;;7.38;4.32;;;;;;;29.00;35.13;99702.00;5111836;28;20015;-43
2023/08/15 07:15:16;;;;;;;6.82;4.38;;;;;;;28.91;36.04;99695.72;5111619;28;20073;-42
2023/08/15 07:17:42;;;;;;;9.38;4.80;;;;;;;28.92;35.34;99692.66;5111502;28;20020;-43
2023/08/15 07:20:09;;;;;;;6.82;4.35;;;;;;;28.64;35.60;99687.59;5111268;28;20031;-42
2023/08/15 07:22:35;;;;;;;11.55;4.60;;;;;;;28.46;35.56;99686.81;5111134;28;20041;-43
2023/08/15 07:25:02;;;;;;;7.75;4.75;;;;;;;28.01;36.46;99687.16;5110979;28;20016;-42
2023/08/15 07:27:27;;;;;;;11.45;4.60;;;;;;;28.12;36.32;99684.06;5111142;28;20093;-43
2023/08/15 07:29:53;;;;;;;9.48;4.90;;;;;;;28.30;35.97;99687.63;5111288;28;20031;-42
2023/08/15 07:32:18;;;;;;;12.27;4.63;;;;;;;28.60;35.50;99697.59;5111086;28;20102;-42
2023/08/15 07:34:44;;;;;;;10.57;4.60;;;;;;;28.82;35.55;99693.81;5110890;28;20475;-41
2023/08/15 07:37:10;;;;;;;7.25;4.55;;;;;;;28.85;35.62;99693.16;5111175;28;20526;-42
2023/08/15 07:39:35;;;;;;;7.30;4.80;;;;;;;28.70;35.33;99684.69;5111076;28;20047;-43
2023/08/15 07:42:01;;;;;;;8.30;4.50;;;;;;;28.71;35.65;99686.28;5110424;28;20020;-42
2023/08/15 07:44:27;;;;;;;7.85;4.63;;;;;;;28.85;35.58;99679.47;5111423;28;20121;-42
2023/08/15 07:46:52;;;;;;;8.15;4.70;;;;;;;28.66;35.67;99690.81;5110803;28;20467;-42
2023/08/15 07:49:18;;;;;;;10.68;4.63;;;;;;;28.77;35.63;99696.75;5110885;28;20072;-42
2023/08/15 07:51:44;;;;;;;8.88;4.30;;;;;;;28.87;35.49;99692.84;5110930;28;20252;-42
2023/08/15 07:54:09;;;;;;;8.15;5.00;;;;;;;29.03;35.11;99698.56;5110534;28;20047;-42
2023/08/15 07:56:34;;;;;;;11.10;4.57;;;;;;;29.16;34.45;99689.34;5110818;28;20027;-43
2023/08/15 07:59:00;;;;;;;11.13;5.28;;;;;;;29.20;34.85;99689.50;5111145;28;20030;-42
2023/08/15 08:01:25;;;;;;;9.10;5.00;;;;;;;29.28;35.19;99679.63;5110840;28;20024;-44
2023/08/15 08:03:51;;;;;;;11.00;4.38;;;;;;;29.18;35.40;99681.63;5110953;28;20024;-42
2023/08/15 08:06:16;;;;;;;6.05;4.20;;;;;;;29.17;35.10;99682.75;5110763;28;20514;-42
2023/08/15 08:08:42;;;;;;;7.80;4.40;;;;;;;29.33;35.25;99684.94;5110486;28;20030;-43
2023/08/15 08:11:07;;;;;;;10.20;5.15;;;;;;;29.43;35.26;99693.59;5111202;28;20027;-41
2023/08/15 08:13:33;;;;;;;6.72;4.47;;;;;;;28.87;36.13;99684.63;5110871;28;20143;-41
2023/08/15 08:15:58;;;;;;;7.65;4.20;;;;;;;28.94;36.04;99687.66;5110828;28;20060;-41
2023/08/15 08:18:23;;;;;;;7.53;4.50;;;;;;;28.62;36.86;99680.84;5111049;28;20193;-41
2023/08/15 08:20:50;;;;;;;7.72;4.60;;;;;;;28.92;36.44;99691.84;5110668;28;20023;-43
2023/08/15 08:23:15;;;;;;;8.85;4.47;;;;;;;28.99;36.61;99687.47;5110695;28;20460;-46
2023/08/15 08:25:41;;;;;;;5.88;4.22;;;;;;;28.88;36.32;99685.41;5110546;28;20487;-41
2023/08/15 08:28:06;;;;;;;6.47;4.43;;;;;;;29.02;36.67;99686.03;5110581;28;20043;-42
2023/08/15 08:30:32;;;;;;;9.32;4.38;;;;;;;28.88;36.66;99677.19;5110676;28;20399;-42
2023/08/15 08:32:58;;;;;;;6.15;4.22;;;;;;;29.07;36.65;99674.06;5110444;28;20027;-43
2023/08/15 08:35:23;;;;;;;7.20;4.20;;;;;;;28.78;37.17;99683.84;5110302;28;20027;-41
2023/08/15 08:37:49;;;;;;;7.80;4.82;;;;;;;29.21;36.60;99669.22;5110435;28;20039;-40
2023/08/15 08:40:17;;;;;;;10.40;4.45;;;;;;;28.73;37.22;99679.38;5110671;28;20051;-43
2023/08/15 08:42:43;;;;;;;9.98;4.63;;;;;;;28.74;37.33;99674.69;5110242;28;20039;-45
2023/08/15 08:45:10;;;;;;;7.70;4.63;;;;;;;28.64;37.29;99676.63;5110320;28;20428;-41
2023/08/15 08:47:37;;;;;;;8.20;4.22;;;;;;;28.71;37.25;99681.63;5110483;28;20038;-42
2023/08/15 08:50:08;;;;;;;10.50;4.30;;;;;;;28.84;36.83;99680.63;5110449;28;20044;-43
2023/08/15 08:52:34;;;;;;;7.20;4.45;;;;;;;29.12;36.76;99679.38;5112066;28;20019;-41
2023/08/15 08:55:00;;;;;;;10.05;4.43;;;;;;;29.06;36.81;99676.00;5114665;28;20038;-42
2023/08/15 08:57:30;;;;;;;8.75;4.53;;;;;;;28.69;37.60;99669.38;5114529;28;20097;-43
2023/08/15 08:59:57;;;;;;;7.25;4.50;;;;;;;28.65;37.19;99675.53;5114395;28;20185;-43
2023/08/15 09:02:22;;;;;;;6.32;4.45;;;;;;;29.04;36.44;99675.53;5114323;28;20024;-41
2023/08/15 09:04:48;;;;;;;9.55;4.35;;;;;;;29.01;36.27;99681.66;5114093;28;20024;-43
2023/08/15 09:07:17;;;;;;;7.78;4.88;;;;;;;29.21;36.23;99683.72;5113900;28;20027;-43
2023/08/15 09:09:42;;;;;;;9.68;4.60;;;;;;;29.20;36.46;99687.56;5114177;28;20020;-42
2023/08/15 09:12:08;;;;;;;5.97;4.10;;;;;;;28.89;36.56;99687.03;5114297;28;20114;-42
2023/08/15 09:14:40;;;;;;;8.15;4.70;;;;;;;28.91;36.37;99684.78;5113851;28;20494;-42
2023/08/15 09:17:05;;;;;;;6.63;4.40;;;;;;;28.93;36.40;99679.78;5113866;28;20023;-43
2023/08/15 09:19:38;;;;;;;5.65;3.88;;;;;;;29.01;36.11;99689.88;5113915;28;20027;-42
2023/08/15 09:22:04;;;;;;;10.32;4.70;;;;;;;29.15;35.87;99690.50;5113935;28;20480;-45
2023/08/15 09:24:30;;;;;;;5.15;4.28;;;;;;;29.41;35.58;99686.81;5113445;28;20020;-41
2023/08/15 09:26:55;;;;;;;8.90;4.40;;;;;;;29.03;36.12;99684.88;5113309;28;20024;-42
2023/08/15 09:29:22;;;;;;;12.98;4.78;;;;;;;29.17;35.91;99681.97;5113482;28;20110;-43
2023/08/15 09:31:49;;;;;;;11.55;4.70;;;;;;;29.28;35.27;99674.16;5113528;28;20036;-44
2023/08/15 09:34:15;;;;;;;9.40;4.70;;;;;;;29.17;35.97;99685.50;5113269;28;20031;-42
2023/08/15 09:36:40;;;;;;;7.85;4.60;;;;;;;28.80;36.13;99685.13;5113914;28;20038;-45
2023/08/15 09:39:08;;;;;;;6.68;4.30;;;;;;;28.16;37.04;99682.31;5113820;28;20439;-43
2023/08/15 09:41:39;;;;;;;7.03;4.45;;;;;;;28.28;36.87;99675.06;5113446;28;20027;-43
2023/08/15 09:44:05;;;;;;;12.00;5.28;;;;;;;28.19;37.14;99682.47;5113412;28;20031;-42
2023/08/15 09:46:31;;;;;;;10.00;5.10;;;;;;;28.73;36.95;99684.84;5113694;28;20024;-45
2023/08/15 09:48:57;;;;;;;9.48;4.57;;;;;;;28.82;37.55;99688.31;5113362;28;20110;-42
2023/08/15 09:51:23;;;;;;;6.07;4.60;;;;;;;28.86;39.17;99688.47;5113500;28;20442;-43
2023/08/15 09:53:49;;;;;;;8.60;4.57;;;;;;;29.11;38.42;99683.22;5113244;28;20185;-42
2023/08/15 09:56:16;;;;;;;6.72;4.45;;;;;;;29.49;38.02;99680.47;5113283;28;20048;-42
2023/08/15 09:58:42;;;;;;;8.68;4.38;;;;;;;29.61;38.42;99683.31;5113139;28;20023;-43
2023/08/15 10:01:08;;;;;;;7.20;4.50;;;;;;;29.68;38.89;99682.78;5113188;28;20031;-42
2023/08/15 10:03:41;;;;;;;5.47;4.22;;;;;;;29.93;38.56;99681.03;5112642;28;20111;-43
2023/08/15 10:06:10;;;;;;;5.30;4.38;;;;;;;30.09;38.93;99689.44;5112800;28;20410;-40
2023/08/15 10:08:38;;;;;;;7.55;4.57;;;;;;;30.19;38.81;99680.78;5112936;28;20022;-43
2023/08/15 10:11:08;;;;;;;12.15;4.50;;;;;;;30.26;38.69;99691.22;5112723;28;20035;-42
2023/08/15 10:13:37;;;;;;;7.97;4.68;;;;;;;30.34;39.06;99689.56;5112902;28;20463;-40
2023/08/15 10:16:05;;;;;;;7.50;4.38;;;;;;;30.36;38.90;99687.28;5112790;28;20027;-42
2023/08/15 10:18:33;;;;;;;6.43;4.80;;;;;;;29.65;40.38;99686.19;5112880;28;20084;-42
2023/08/15 10:20:58;;;;;;;6.38;4.78;;;;;;;29.90;40.45;99683.63;5112525;28;20487;-43
2023/08/15 10:23:26;;;;;;;6.50;5.05;;;;;;;29.60;41.30;99681.69;5112543;28;20046;-41
2023/08/15 10:25:53;;;;;;;7.07;4.65;;;;;;;29.96;40.41;99688.56;5112593;28;20044;-43
2023/08/15 10:28:19;;;;;;;6.40;4.88;;;;;;;29.88;40.75;99683.97;5112249;28;20027;-43
2023/08/15 10:30:46;;;;;;;5.97;4.80;;;;;;;29.65;41.37;99679.91;5112300;28;20129;-42
2023/08/15 10:33:14;;;;;;;9.77;4.93;;;;;;;29.56;41.82;99682.72;5112716;28;20027;-43
2023/08/15 10:36:02;;;;;;;8.90;5.22;;;;;;;29.50;42.11;99686.78;5111854;28;20023;-42
2023/08/15 10:38:37;;;;;;;5.95;4.70;;;;;;;29.54;42.11;99684.97;5098558;28;20081;-44
2023/08/15 10:41:10;;;;;;;6.88;5.10;;;;;;;29.88;41.72;99688.66;5112514;28;20043;-42
2023/08/15 10:43:37;;;;;;;10.02;5.30;;;;;;;29.98;41.84;99686.28;5112249;28;20019;-46
2023/08/15 10:46:07;;;;;;;8.95;5.20;;;;;;;29.74;42.46;99688.91;5112000;28;20020;-42
2023/08/15 10:48:43;;;;;;;7.03;5.22;;;;;;;29.70;42.65;99696.16;5111868;28;20015;-42
2023/08/15 10:51:15;;;;;;;5.72;4.82;;;;;;;29.52;43.09;99690.00;5111299;28;20019;-44
2023/08/15 10:53:41;;;;;;;6.25;5.10;;;;;;;29.35;43.75;99688.94;5111615;28;20038;-43
2023/08/15 10:56:08;;;;;;;8.45;5.03;;;;;;;29.51;43.51;99682.88;5111409;28;20019;-43
2023/08/15 10:58:34;;;;;;;9.43;5.20;;;;;;;29.14;44.61;99691.63;5111694;28;20055;-42
2023/08/15 11:01:01;;;;;;;7.45;5.20;;;;;;;29.01;45.00;99687.13;5111595;28;20024;-43
2023/08/15 11:03:26;;;;;;;8.82;5.43;;;;;;;28.88;45.41;99693.63;5111780;28;20070;-44
2023/08/15 11:05:52;;;;;;;9.82;5.45;;;;;;;28.56;46.55;99688.41;5111506;28;20450;-42
2023/08/15 11:08:19;;;;;;;6.47;5.20;;;;;;;28.37;47.60;99691.47;5111626;28;20504;-44
2023/08/15 11:10:49;;;;;;;6.93;5.57;;;;;;;28.81;46.82;99691.41;5111455;28;20098;-44
2023/08/15 11:13:18;;;;;;;7.90;5.03;;;;;;;28.85;47.16;99686.88;5111290;28;20471;-42
2023/08/15 11:15:45;;;;;;;8.60;5.43;;;;;;;28.44;48.18;99672.63;5111418;28;20020;-42
2023/08/15 11:18:11;;;;;;;8.35;5.07;;;;;;;28.21;48.91;99682.16;5111470;28;20027;-46
2023/08/15 11:20:37;;;;;;;6.05;5.45;;;;;;;28.01;49.70;99689.88;5111273;28;20047;-42
2023/08/15 11:23:03;;;;;;;9.18;5.93;;;;;;;28.40;49.03;99685.34;5111667;28;20479;-43
2023/08/15 11:25:28;;;;;;;7.43;5.80;;;;;;;28.57;48.62;99692.75;5111268;28;20502;-44
2023/08/15 11:27:54;;;;;;;10.65;5.72;;;;;;;28.53;48.79;99691.00;5111388;28;20036;-43